createdAt,value
2022-10-07T00:01:48.049Z,4.18
2022-10-07T00:04:15.316Z,3.38
2022-10-07T00:06:41.893Z,3.95
2022-10-07T00:09:08.636Z,3.83
2022-10-07T00:11:35.101Z,3.78
2022-10-07T00:14:02.674Z,3.40
2022-10-07T00:16:30.309Z,3.38
2022-10-07T00:18:58.371Z,3.78
2022-10-07T00:21:25.959Z,3.90
2022-10-07T00:23:52.559Z,4.78
2022-10-07T00:26:20.408Z,3.75
2022-10-07T00:28:46.991Z,3.83
2022-10-07T00:31:15.026Z,4.25
2022-10-07T00:33:41.588Z,3.83
2022-10-07T00:36:09.080Z,4.07
2022-10-07T00:38:35.754Z,4.10
2022-10-07T00:41:02.207Z,4.20
2022-10-07T00:43:30.179Z,3.88
2022-10-07T00:46:19.852Z,3.80
2022-10-07T00:48:46.953Z,3.53
2022-10-07T00:51:16.828Z,3.38
2022-10-07T00:53:45.431Z,4.00
2022-10-07T00:56:13.127Z,4.53
2022-10-07T00:58:40.740Z,4.00
2022-10-07T01:01:07.622Z,4.25
2022-10-07T01:03:36.090Z,4.63
2022-10-07T01:06:03.975Z,4.28
2022-10-07T01:08:30.682Z,4.15
2022-10-07T01:11:03.164Z,4.93
2022-10-07T01:13:34.752Z,3.97
2022-10-07T01:16:07.448Z,4.05
2022-10-07T01:18:41.204Z,3.58
2022-10-07T01:21:11.867Z,4.35
2022-10-07T01:23:45.034Z,4.32
2022-10-07T01:26:14.262Z,4.65
2022-10-07T01:28:46.852Z,4.78
2022-10-07T01:31:17.141Z,5.20
2022-10-07T01:33:44.555Z,4.82
2022-10-07T01:36:13.503Z,4.50
2022-10-07T01:38:42.352Z,4.15
2022-10-07T01:41:11.132Z,4.28
2022-10-07T01:43:38.572Z,4.32
2022-10-07T01:46:07.046Z,3.92
2022-10-07T01:48:33.706Z,3.60
2022-10-07T01:51:02.216Z,4.55
2022-10-07T01:53:37.932Z,4.20
2022-10-07T01:56:11.989Z,4.03
2022-10-07T01:58:57.577Z,4.38
2022-10-07T02:01:32.107Z,4.22
2022-10-07T02:04:17.523Z,4.63
2022-10-07T02:06:43.957Z,4.38
2022-10-07T02:09:15.166Z,4.18
2022-10-07T02:11:44.357Z,4.60
2022-10-07T02:14:18.851Z,4.97
2022-10-07T02:16:50.332Z,5.40
2022-10-07T02:19:22.622Z,5.18
2022-10-07T02:21:50.781Z,5.72
2022-10-07T02:24:18.238Z,5.20
2022-10-07T02:26:45.430Z,4.95
2022-10-07T02:29:13.259Z,5.00
2022-10-07T02:31:41.815Z,5.03
2022-10-07T02:34:10.195Z,4.72
2022-10-07T02:36:39.051Z,5.53
2022-10-07T02:39:05.598Z,5.25
2022-10-07T02:41:49.490Z,4.90
2022-10-07T02:44:25.974Z,4.65
2022-10-07T02:46:52.431Z,4.53
2022-10-07T02:49:20.406Z,4.80
2022-10-07T02:51:56.530Z,4.68
2022-10-07T02:54:26.395Z,5.25
2022-10-07T02:56:53.801Z,5.68
2022-10-07T02:59:20.807Z,5.32
2022-10-07T03:01:49.085Z,5.85
2022-10-07T03:04:16.211Z,5.57
2022-10-07T03:06:43.062Z,5.20
2022-10-07T03:09:09.915Z,5.43
2022-10-07T03:11:39.580Z,5.53
2022-10-07T03:14:06.528Z,5.90
2022-10-07T03:16:33.303Z,5.65
2022-10-07T03:18:59.775Z,6.25
2022-10-07T03:21:26.255Z,7.45
2022-10-07T03:23:53.120Z,6.93
2022-10-07T03:26:19.718Z,6.05
2022-10-07T03:28:46.665Z,7.43
2022-10-07T03:31:15.514Z,5.93
2022-10-07T03:33:42.332Z,9.18
2022-10-07T03:36:09.144Z,6.93
2022-10-07T03:38:35.854Z,7.88
2022-10-07T03:41:04.445Z,7.57
2022-10-07T03:43:31.418Z,7.43
2022-10-07T03:45:58.534Z,6.63
2022-10-07T03:48:24.960Z,7.03
2022-10-07T03:50:52.377Z,6.35
2022-10-07T03:53:19.496Z,6.63
2022-10-07T03:55:46.103Z,6.22
2022-10-07T03:58:15.572Z,8.45
2022-10-07T04:00:42.370Z,7.13
2022-10-07T04:03:09.464Z,7.78
2022-10-07T04:05:36.662Z,8.02
2022-10-07T04:08:04.939Z,7.10
2022-10-07T04:10:31.930Z,11.10
2022-10-07T04:12:58.492Z,10.32
2022-10-07T04:15:25.032Z,9.23
2022-10-07T04:17:54.413Z,9.27
2022-10-07T04:20:20.844Z,9.02
2022-10-07T04:22:47.270Z,9.27
2022-10-07T04:25:32.552Z,9.23
2022-10-07T04:28:00.114Z,9.52
2022-10-07T04:30:27.915Z,11.02
2022-10-07T04:32:54.824Z,9.73
2022-10-07T04:35:22.442Z,10.60
2022-10-07T04:37:49.389Z,10.18
2022-10-07T04:40:17.240Z,9.60
2022-10-07T04:43:02.388Z,10.90
2022-10-07T04:45:28.919Z,8.43
2022-10-07T04:47:55.347Z,8.35
2022-10-07T04:50:21.771Z,9.88
2022-10-07T04:52:48.293Z,9.75
2022-10-07T04:55:14.754Z,8.20
2022-10-07T04:57:42.001Z,8.45
2022-10-07T05:00:09.568Z,4.78
2022-10-07T05:02:36.516Z,3.95
2022-10-07T05:05:03.659Z,6.43
2022-10-07T05:07:32.006Z,7.15
2022-10-07T05:09:58.783Z,7.20
2022-10-07T05:12:26.717Z,6.53
2022-10-07T05:14:53.392Z,8.93
2022-10-07T05:17:20.445Z,6.93
2022-10-07T05:19:47.098Z,6.45
2022-10-07T05:22:13.917Z,5.72
2022-10-07T05:24:40.355Z,5.55
2022-10-07T05:27:06.783Z,5.35
2022-10-07T05:29:33.400Z,5.53
2022-10-07T05:32:04.776Z,5.60
2022-10-07T05:34:32.867Z,6.20
2022-10-07T05:36:59.506Z,5.28
2022-10-07T05:39:25.941Z,3.97
2022-10-07T05:41:52.367Z,5.60
2022-10-07T05:44:18.859Z,4.80
2022-10-07T05:46:46.744Z,5.75
2022-10-07T05:49:13.315Z,3.95
2022-10-07T05:51:39.805Z,3.97
2022-10-07T05:54:06.273Z,4.88
2022-10-07T05:56:32.806Z,5.88
2022-10-07T05:58:59.411Z,5.15
2022-10-07T06:01:27.727Z,4.57
2022-10-07T06:03:55.301Z,5.10
2022-10-07T06:06:22.087Z,5.35
2022-10-07T06:08:50.418Z,4.22
2022-10-07T06:11:36.219Z,4.93
2022-10-07T06:14:03.227Z,5.07
2022-10-07T06:16:29.759Z,5.65
2022-10-07T06:18:56.336Z,4.95
2022-10-07T06:21:25.899Z,4.47
2022-10-07T06:23:52.926Z,4.50
2022-10-07T06:26:20.185Z,4.25
2022-10-07T06:28:46.713Z,4.10
2022-10-07T06:31:14.861Z,4.28
2022-10-07T06:33:41.655Z,4.38
2022-10-07T06:36:10.748Z,5.05
2022-10-07T06:38:37.305Z,5.65
2022-10-07T06:41:05.267Z,5.90
2022-10-07T06:43:32.467Z,5.22
2022-10-07T06:46:00.182Z,5.63
2022-10-07T06:48:27.052Z,5.60
2022-10-07T06:50:54.106Z,5.65
2022-10-07T06:53:20.904Z,5.07
2022-10-07T06:55:47.491Z,3.17
2022-10-07T06:58:13.996Z,3.65
2022-10-07T07:00:40.620Z,3.80
2022-10-07T07:03:07.210Z,3.05
2022-10-07T07:05:42.801Z,3.30
2022-10-07T07:08:12.190Z,3.63
2022-10-07T07:10:39.805Z,3.63
2022-10-07T07:13:07.581Z,3.78
2022-10-07T07:15:35.041Z,2.15
2022-10-07T07:18:02.004Z,3.03
2022-10-07T07:20:35.274Z,4.18
2022-10-07T07:23:02.159Z,4.38
2022-10-07T07:25:28.869Z,5.53
2022-10-07T07:27:57.897Z,5.38
2022-10-07T07:30:25.165Z,5.20
2022-10-07T07:32:51.655Z,4.15
2022-10-07T07:35:18.141Z,4.25
2022-10-07T07:37:45.851Z,4.97
2022-10-07T07:40:12.588Z,4.63
2022-10-07T07:42:39.104Z,3.67
2022-10-07T07:45:05.992Z,4.05
2022-10-07T07:47:32.456Z,6.25
2022-10-07T07:49:58.871Z,6.30
2022-10-07T07:52:25.773Z,5.15
2022-10-07T07:54:52.522Z,4.35
2022-10-07T07:57:19.531Z,3.60
2022-10-07T07:59:46.064Z,3.83
2022-10-07T08:02:12.582Z,3.45
2022-10-07T08:04:39.083Z,1.52
2022-10-07T08:07:05.586Z,2.95
2022-10-07T08:09:32.061Z,2.75
2022-10-07T08:11:58.517Z,1.20
2022-10-07T08:14:25.045Z,1.15
2022-10-07T08:16:51.605Z,2.42
2022-10-07T08:19:18.063Z,2.70
2022-10-07T08:21:44.580Z,1.00
2022-10-07T08:24:11.680Z,1.45
2022-10-07T08:26:38.779Z,2.22
2022-10-07T08:29:05.315Z,1.33
2022-10-07T08:31:32.025Z,1.63
2022-10-07T08:33:59.411Z,0.95
2022-10-07T08:36:26.874Z,1.20
2022-10-07T08:38:53.378Z,1.50
2022-10-07T08:41:24.242Z,1.42
2022-10-07T08:43:51.291Z,1.25
2022-10-07T08:46:19.781Z,1.63
2022-10-07T08:48:52.318Z,0.80
2022-10-07T08:51:21.288Z,1.08
2022-10-07T08:53:52.875Z,0.90
2022-10-07T08:56:20.537Z,0.70
2022-10-07T08:58:46.991Z,0.70
2022-10-07T09:01:15.616Z,0.85
2022-10-07T09:03:45.014Z,0.90
2022-10-07T09:06:14.027Z,0.80
2022-10-07T09:08:43.700Z,0.50
2022-10-07T09:11:16.093Z,0.50
2022-10-07T09:13:46.636Z,0.50
2022-10-07T09:16:18.902Z,0.50
2022-10-07T09:18:51.053Z,0.60
2022-10-07T09:21:23.655Z,0.65
2022-10-07T09:23:55.695Z,0.50
2022-10-07T09:26:22.644Z,0.50
2022-10-07T09:28:50.354Z,0.60
2022-10-07T09:31:17.044Z,0.50
2022-10-07T09:33:44.942Z,0.40
2022-10-07T09:36:12.617Z,0.50
2022-10-07T09:38:43.608Z,0.40
2022-10-07T09:41:19.520Z,0.40
2022-10-07T09:43:58.300Z,0.60
2022-10-07T09:46:48.094Z,0.40
2022-10-07T09:49:31.666Z,0.30
2022-10-07T09:51:59.771Z,0.30
2022-10-07T09:54:26.969Z,0.40
2022-10-07T09:56:57.734Z,0.40
2022-10-07T09:59:25.632Z,0.35
2022-10-07T10:01:56.969Z,0.50
2022-10-07T10:04:27.084Z,0.40
2022-10-07T10:06:55.464Z,0.30
2022-10-07T10:09:23.604Z,0.40
2022-10-07T10:12:08.793Z,0.40
2022-10-07T10:14:36.991Z,0.40
2022-10-07T10:17:04.023Z,0.40
2022-10-07T10:19:34.914Z,0.40
2022-10-07T10:22:04.006Z,0.40
2022-10-07T10:24:53.195Z,0.40
2022-10-07T10:27:22.760Z,0.30
2022-10-07T10:30:03.462Z,0.40
2022-10-07T10:32:45.346Z,0.50
2022-10-07T10:35:13.587Z,0.40
2022-10-07T10:37:40.016Z,0.40
2022-10-07T10:40:09.514Z,0.40
2022-10-07T10:42:35.971Z,0.43
2022-10-07T10:45:03.769Z,0.40
2022-10-07T10:47:39.418Z,0.40
2022-10-07T10:50:15.921Z,0.50
2022-10-07T10:52:50.312Z,0.30
2022-10-07T10:55:29.275Z,0.35
2022-10-07T10:58:00.083Z,0.30
2022-10-07T11:00:30.640Z,0.22
2022-10-07T11:03:16.075Z,0.30
2022-10-07T11:05:44.149Z,0.28
2022-10-07T11:08:25.297Z,0.30
2022-10-07T11:10:58.564Z,0.30
2022-10-07T11:13:33.973Z,0.30
2022-10-07T11:16:08.317Z,0.20
2022-10-07T11:18:34.794Z,0.40
2022-10-07T11:21:01.572Z,0.30
2022-10-07T11:23:47.048Z,0.30
2022-10-07T11:26:18.719Z,0.30
2022-10-07T11:28:46.061Z,0.30
2022-10-07T11:31:17.604Z,0.30
2022-10-07T11:33:49.090Z,0.20
2022-10-07T11:36:21.175Z,0.40
2022-10-07T11:38:49.032Z,0.20
2022-10-07T11:41:24.412Z,0.32
2022-10-07T11:43:57.187Z,0.30
2022-10-07T11:46:29.799Z,0.30
2022-10-07T11:49:00.902Z,0.25
2022-10-07T11:51:34.345Z,0.20
2022-10-07T11:54:03.012Z,0.30
2022-10-07T11:56:35.492Z,0.30
2022-10-07T11:59:03.320Z,0.30
2022-10-07T12:01:31.029Z,0.20
2022-10-07T12:04:36.147Z,0.30
2022-10-07T12:07:21.176Z,0.20
2022-10-07T12:10:03.671Z,0.30
2022-10-07T12:12:42.533Z,0.20
2022-10-07T12:15:28.155Z,0.20
2022-10-07T12:18:17.829Z,0.30
2022-10-07T12:20:45.491Z,0.20
2022-10-07T12:23:22.180Z,0.30
2022-10-07T12:25:49.732Z,0.20
2022-10-07T12:28:35.017Z,0.32
2022-10-07T12:31:16.760Z,0.20
2022-10-07T12:33:46.333Z,0.10
2022-10-07T12:36:18.579Z,0.20
2022-10-07T12:39:09.661Z,0.20
2022-10-07T12:41:40.115Z,0.20
2022-10-07T12:44:25.280Z,0.20
2022-10-07T12:47:14.958Z,0.20
2022-10-07T12:49:49.966Z,0.20
2022-10-07T12:52:27.462Z,0.20
2022-10-07T12:54:59.054Z,0.25
2022-10-07T12:57:35.175Z,0.20
2022-10-07T13:00:12.669Z,0.28
2022-10-07T13:03:00.585Z,0.30
2022-10-07T13:05:30.066Z,0.20
2022-10-07T13:08:15.336Z,0.20
2022-10-07T13:10:44.480Z,0.20
2022-10-07T13:13:15.048Z,0.20
2022-10-07T13:15:55.432Z,0.20
2022-10-07T13:18:28.426Z,0.20
2022-10-07T13:21:00.834Z,0.20
2022-10-07T13:23:29.107Z,0.20
2022-10-07T13:25:57.403Z,0.20
2022-10-07T13:28:25.379Z,0.30
2022-10-07T13:30:52.649Z,0.20
2022-10-07T13:33:22.186Z,0.20
2022-10-07T13:35:49.983Z,0.20
2022-10-07T13:38:26.546Z,0.30
2022-10-07T13:41:03.872Z,0.30
2022-10-07T13:43:32.151Z,0.20
2022-10-07T13:46:00.310Z,0.30
2022-10-07T13:48:28.365Z,0.20
2022-10-07T13:50:56.908Z,0.30
2022-10-07T13:53:26.268Z,0.20
2022-10-07T13:56:04.166Z,0.20
2022-10-07T13:58:32.795Z,0.30
2022-10-07T14:01:01.206Z,0.20
2022-10-07T14:03:27.740Z,0.20
2022-10-07T14:05:54.395Z,0.30
2022-10-07T14:08:22.005Z,0.30
2022-10-07T14:10:53.806Z,0.30
2022-10-07T14:13:20.359Z,0.20
2022-10-07T14:15:52.405Z,0.20
2022-10-07T14:18:18.918Z,0.20
2022-10-07T14:20:52.930Z,0.30
2022-10-07T14:23:28.378Z,0.30
2022-10-07T14:25:56.157Z,0.20
2022-10-07T14:28:25.543Z,0.40
2022-10-07T14:31:30.621Z,0.30
2022-10-07T14:34:17.600Z,0.30
2022-10-07T14:37:19.671Z,0.30
2022-10-07T14:39:49.799Z,0.30
2022-10-07T14:42:19.065Z,0.30
2022-10-07T14:44:46.205Z,0.40
2022-10-07T14:47:17.622Z,0.30
2022-10-07T14:49:44.560Z,0.30
2022-10-07T14:52:19.673Z,0.40
2022-10-07T14:54:46.690Z,0.30
2022-10-07T14:57:13.193Z,0.28
2022-10-07T14:59:39.698Z,0.40
2022-10-07T15:02:06.796Z,0.45
2022-10-07T15:04:33.763Z,0.40
2022-10-07T15:07:00.251Z,0.30
2022-10-07T15:09:26.724Z,0.40
2022-10-07T15:11:53.329Z,0.40
2022-10-07T15:14:19.791Z,0.40
2022-10-07T15:16:46.277Z,0.60
2022-10-07T15:19:13.159Z,0.40
2022-10-07T15:21:39.689Z,0.40
2022-10-07T15:24:06.212Z,0.40
2022-10-07T15:26:32.730Z,0.40
2022-10-07T15:28:59.506Z,0.40
2022-10-07T15:31:27.117Z,0.40
2022-10-07T15:33:57.220Z,0.40
2022-10-07T15:36:27.548Z,0.40
2022-10-07T15:38:54.378Z,0.40
2022-10-07T15:41:31.744Z,0.35
2022-10-07T15:43:59.203Z,0.40
2022-10-07T15:46:25.775Z,0.50
2022-10-07T15:48:56.394Z,0.50
2022-10-07T15:51:23.885Z,0.50
2022-10-07T15:53:50.305Z,0.50
2022-10-07T15:56:17.047Z,0.60
2022-10-07T15:58:44.464Z,0.60
2022-10-07T16:01:11.098Z,0.52
2022-10-07T16:03:40.192Z,0.50
2022-10-07T16:06:10.863Z,0.52
2022-10-07T16:08:37.381Z,0.77
2022-10-07T16:11:07.468Z,0.50
2022-10-07T16:13:38.305Z,0.60
2022-10-07T16:16:07.176Z,0.70
2022-10-07T16:18:36.779Z,0.50
2022-10-07T16:21:06.763Z,0.50
2022-10-07T16:23:34.110Z,0.60
2022-10-07T16:26:04.572Z,0.77
2022-10-07T16:28:49.684Z,0.50
2022-10-07T16:31:16.380Z,0.60
2022-10-07T16:33:43.196Z,0.70
2022-10-07T16:36:10.414Z,0.60
2022-10-07T16:38:36.901Z,0.57
2022-10-07T16:41:03.342Z,0.68
2022-10-07T16:43:29.887Z,0.60
2022-10-07T16:46:00.070Z,0.57
2022-10-07T16:48:26.762Z,0.70
2022-10-07T16:50:53.236Z,0.57
2022-10-07T16:53:19.656Z,0.60
2022-10-07T16:55:46.087Z,0.80
2022-10-07T16:58:12.628Z,0.70
2022-10-07T17:00:39.172Z,0.85
2022-10-07T17:03:05.740Z,0.60
2022-10-07T17:05:32.434Z,0.80
2022-10-07T17:07:58.873Z,1.15
2022-10-07T17:10:25.329Z,1.60
2022-10-07T17:12:51.739Z,1.80
2022-10-07T17:15:18.167Z,1.52
2022-10-07T17:17:45.003Z,1.10
2022-10-07T17:20:12.025Z,1.15
2022-10-07T17:22:38.611Z,1.20
2022-10-07T17:25:05.382Z,0.73
2022-10-07T17:27:31.820Z,0.93
2022-10-07T17:29:58.263Z,1.00
2022-10-07T17:32:27.154Z,1.25
2022-10-07T17:34:53.795Z,1.15
2022-10-07T17:37:20.263Z,1.00
2022-10-07T17:39:48.209Z,1.65
2022-10-07T17:42:15.040Z,1.33
2022-10-07T17:44:41.507Z,1.38
2022-10-07T17:47:08.086Z,1.40
2022-10-07T17:49:35.016Z,1.73
2022-10-07T17:52:01.510Z,1.60
2022-10-07T17:54:27.956Z,1.83
2022-10-07T17:56:54.382Z,1.88
2022-10-07T17:59:20.854Z,1.58
2022-10-07T18:01:48.224Z,1.88
2022-10-07T18:04:18.960Z,2.00
2022-10-07T18:06:48.860Z,2.38
2022-10-07T18:09:18.280Z,3.15
2022-10-07T18:12:04.383Z,3.40
2022-10-07T18:14:53.437Z,6.15
2022-10-07T18:17:20.500Z,6.20
2022-10-07T18:19:47.556Z,7.55
2022-10-07T18:22:14.006Z,7.97
2022-10-07T18:24:41.031Z,9.50
2022-10-07T18:27:07.462Z,9.35
2022-10-07T18:29:37.492Z,9.90
2022-10-07T18:32:04.748Z,10.13
2022-10-07T18:34:32.515Z,11.48
2022-10-07T18:36:59.392Z,10.40
2022-10-07T18:39:27.711Z,9.52
2022-10-07T18:41:54.475Z,10.55
2022-10-07T18:44:20.928Z,10.40
2022-10-07T18:46:48.784Z,10.15
2022-10-07T18:49:16.510Z,10.25
2022-10-07T18:51:42.951Z,11.10
2022-10-07T18:54:10.356Z,9.93
2022-10-07T18:56:40.855Z,9.43
2022-10-07T18:59:08.100Z,9.65
2022-10-07T19:01:34.827Z,9.20
2022-10-07T19:04:02.358Z,8.95
2022-10-07T19:06:30.067Z,8.43
2022-10-07T19:08:58.007Z,8.93
2022-10-07T19:11:24.792Z,8.15
2022-10-07T19:13:58.242Z,9.23
2022-10-07T19:16:25.798Z,8.50
2022-10-07T19:18:53.841Z,7.65
2022-10-07T19:21:20.493Z,6.15
2022-10-07T19:23:48.306Z,6.63
2022-10-07T19:26:18.979Z,7.53
2022-10-07T19:28:47.662Z,5.68
2022-10-07T19:31:15.430Z,5.72
2022-10-07T19:33:42.797Z,6.65
2022-10-07T19:36:09.817Z,5.93
2022-10-07T19:38:37.724Z,7.65
2022-10-07T19:41:06.844Z,5.82
2022-10-07T19:43:35.115Z,4.85
2022-10-07T19:46:02.766Z,4.60
2022-10-07T19:48:30.019Z,4.90
2022-10-07T19:50:57.648Z,3.53
2022-10-07T19:53:24.103Z,4.18
2022-10-07T19:55:50.528Z,5.75
2022-10-07T19:58:17.339Z,4.57
2022-10-07T20:00:43.828Z,4.75
2022-10-07T20:03:10.253Z,3.92
2022-10-07T20:05:40.098Z,3.72
2022-10-07T20:08:10.041Z,3.63
2022-10-07T20:10:38.042Z,4.07
2022-10-07T20:13:05.071Z,4.18
2022-10-07T20:15:31.616Z,4.47
2022-10-07T20:17:58.079Z,4.68
2022-10-07T20:20:24.641Z,4.53
2022-10-07T20:22:51.308Z,4.85
2022-10-07T20:25:17.778Z,5.07
2022-10-07T20:27:44.587Z,5.43
2022-10-07T20:30:17.513Z,5.50
2022-10-07T20:32:44.867Z,3.80
2022-10-07T20:35:12.299Z,3.58
2022-10-07T20:37:38.825Z,4.45
2022-10-07T20:40:24.252Z,3.60
2022-10-07T20:42:51.974Z,5.18
2022-10-07T20:45:18.762Z,4.88
2022-10-07T20:47:46.290Z,4.72
2022-10-07T20:50:13.147Z,3.85
2022-10-07T20:52:39.581Z,3.72
2022-10-07T20:55:07.654Z,3.78
2022-10-07T20:57:37.848Z,3.33
2022-10-07T21:00:05.355Z,3.20
2022-10-07T21:02:31.942Z,4.30
2022-10-07T21:04:59.857Z,3.40
2022-10-07T21:07:26.353Z,4.03
2022-10-07T21:09:52.915Z,3.42
2022-10-07T21:12:19.413Z,4.32
2022-10-07T21:14:47.933Z,4.80
2022-10-07T21:17:14.987Z,4.20
2022-10-07T21:19:41.867Z,4.03
2022-10-07T21:22:08.567Z,3.92
2022-10-07T21:24:35.493Z,4.47
2022-10-07T21:27:02.956Z,6.03
2022-10-07T21:29:31.276Z,4.57
2022-10-07T21:31:58.364Z,5.55
2022-10-07T21:34:24.851Z,5.18
2022-10-07T21:36:53.863Z,5.15
2022-10-07T21:39:20.647Z,5.07
2022-10-07T21:41:48.131Z,4.55
2022-10-07T21:44:14.678Z,5.07
2022-10-07T21:46:46.434Z,5.60
2022-10-07T21:49:13.966Z,5.30
2022-10-07T21:51:40.540Z,5.68
2022-10-07T21:54:07.277Z,5.55
2022-10-07T21:56:34.010Z,5.95
2022-10-07T21:59:01.642Z,5.85
2022-10-07T22:01:28.531Z,5.72
2022-10-07T22:03:55.775Z,5.05
2022-10-07T22:06:42.658Z,5.07
2022-10-07T22:09:09.250Z,5.38
2022-10-07T22:11:35.931Z,5.47
2022-10-07T22:14:02.428Z,5.20
2022-10-07T22:16:28.905Z,4.93
2022-10-07T22:18:55.336Z,5.10
2022-10-07T22:21:23.470Z,5.13
2022-10-07T22:23:54.312Z,4.70
2022-10-07T22:26:21.881Z,4.80
2022-10-07T22:28:48.771Z,5.20
2022-10-07T22:31:16.215Z,4.88
2022-10-07T22:33:43.439Z,4.65
2022-10-07T22:36:11.752Z,4.07
2022-10-07T22:38:40.850Z,4.15
2022-10-07T22:41:08.591Z,3.35
2022-10-07T22:43:39.007Z,3.78
2022-10-07T22:46:06.258Z,3.80
2022-10-07T22:48:33.685Z,4.05
2022-10-07T22:51:06.542Z,3.42
2022-10-07T22:53:33.591Z,3.20
2022-10-07T22:56:03.397Z,4.22
2022-10-07T22:58:30.237Z,4.32
2022-10-07T23:00:56.691Z,5.88
2022-10-07T23:03:23.295Z,6.70
2022-10-07T23:05:51.334Z,7.22
2022-10-07T23:08:17.756Z,5.82
2022-10-07T23:10:44.263Z,8.27
2022-10-07T23:13:10.714Z,8.15
2022-10-07T23:15:37.147Z,8.20
2022-10-07T23:18:03.688Z,9.95
2022-10-07T23:20:30.124Z,10.38
2022-10-07T23:22:56.518Z,9.10
2022-10-07T23:25:26.349Z,9.35
2022-10-07T23:27:52.832Z,9.73
2022-10-07T23:30:19.266Z,9.50
2022-10-07T23:32:46.372Z,9.60
2022-10-07T23:35:13.077Z,8.98
2022-10-07T23:37:40.158Z,9.02
2022-10-07T23:40:07.033Z,10.20
2022-10-07T23:42:33.555Z,9.25
2022-10-07T23:45:01.605Z,9.07
2022-10-07T23:47:28.103Z,9.27
2022-10-07T23:49:54.520Z,7.72
2022-10-07T23:52:21.727Z,7.90
2022-10-07T23:54:48.322Z,7.45
2022-10-07T23:57:14.743Z,7.25
2022-10-07T23:59:41.179Z,7.88
